sensor_id;sensor_type;location;lat;lon;timestamp;temperature;humidity
23562;DHT22;11959;49.418;8.728;2023-08-21T00:00:51;22.40;99.90
23562;DHT22;11959;49.418;8.728;2023-08-21T00:03:16;22.40;99.90
23562;DHT22;11959;49.418;8.728;2023-08-21T00:05:42;22.30;99.90
23562;DHT22;11959;49.418;8.728;2023-08-21T00:08:07;22.30;99.90
23562;DHT22;11959;49.418;8.728;2023-08-21T00:10:33;22.30;99.90
23562;DHT22;11959;49.418;8.728;2023-08-21T00:13:02;22.30;99.90
23562;DHT22;11959;49.418;8.728;2023-08-21T00:15:28;22.30;99.90
23562;DHT22;11959;49.418;8.728;2023-08-21T00:17:53;22.30;99.90
23562;DHT22;11959;49.418;8.728;2023-08-21T00:20:19;22.30;99.90
23562;DHT22;11959;49.418;8.728;2023-08-21T00:22:45;22.20;99.90
23562;DHT22;11959;49.418;8.728;2023-08-21T00:25:11;22.20;99.90
23562;DHT22;11959;49.418;8.728;2023-08-21T00:27:36;22.20;99.90
23562;DHT22;11959;49.418;8.728;2023-08-21T00:30:02;22.20;99.90
23562;DHT22;11959;49.418;8.728;2023-08-21T00:32:28;22.20;99.90
23562;DHT22;11959;49.418;8.728;2023-08-21T00:34:53;22.20;99.90
23562;DHT22;11959;49.418;8.728;2023-08-21T00:37:19;22.20;99.90
23562;DHT22;11959;49.418;8.728;2023-08-21T00:39:45;22.20;99.90
23562;DHT22;11959;49.418;8.728;2023-08-21T00:42:10;22.20;99.90
23562;DHT22;11959;49.418;8.728;2023-08-21T00:44:36;22.20;99.90
23562;DHT22;11959;49.418;8.728;2023-08-21T00:47:02;22.20;99.90
23562;DHT22;11959;49.418;8.728;2023-08-21T00:49:28;22.10;99.90
23562;DHT22;11959;49.418;8.728;2023-08-21T00:51:54;22.10;99.90
23562;DHT22;11959;49.418;8.728;2023-08-21T00:54:20;22.10;99.90
23562;DHT22;11959;49.418;8.728;2023-08-21T00:56:46;22.10;99.90
23562;DHT22;11959;49.418;8.728;2023-08-21T00:59:12;22.10;99.90
23562;DHT22;11959;49.418;8.728;2023-08-21T01:01:38;22.10;99.90
23562;DHT22;11959;49.418;8.728;2023-08-21T01:04:05;22.10;99.90
23562;DHT22;11959;49.418;8.728;2023-08-21T01:06:31;22.10;99.90
23562;DHT22;11959;49.418;8.728;2023-08-21T01:09:01;22.10;99.90
23562;DHT22;11959;49.418;8.728;2023-08-21T01:11:39;22.10;99.90
23562;DHT22;11959;49.418;8.728;2023-08-21T01:16:47;22.00;99.90
23562;DHT22;11959;49.418;8.728;2023-08-21T01:19:31;22.00;99.90
23562;DHT22;11959;49.418;8.728;2023-08-21T01:22:00;22.00;99.90
23562;DHT22;11959;49.418;8.728;2023-08-21T01:24:26;21.90;99.90
23562;DHT22;11959;49.418;8.728;2023-08-21T01:26:52;21.90;99.90
23562;DHT22;11959;49.418;8.728;2023-08-21T01:29:17;21.90;99.90
23562;DHT22;11959;49.418;8.728;2023-08-21T01:31:50;21.90;99.90
23562;DHT22;11959;49.418;8.728;2023-08-21T01:34:16;21.90;99.90
23562;DHT22;11959;49.418;8.728;2023-08-21T01:36:43;21.90;99.90
23562;DHT22;11959;49.418;8.728;2023-08-21T01:39:10;21.80;99.90
23562;DHT22;11959;49.418;8.728;2023-08-21T01:41:36;21.80;99.90
23562;DHT22;11959;49.418;8.728;2023-08-21T01:44:01;21.80;99.90
23562;DHT22;11959;49.418;8.728;2023-08-21T01:46:27;21.80;99.90
23562;DHT22;11959;49.418;8.728;2023-08-21T01:48:52;21.80;99.90
23562;DHT22;11959;49.418;8.728;2023-08-21T01:51:18;21.80;99.90
23562;DHT22;11959;49.418;8.728;2023-08-21T01:53:44;21.70;99.90
23562;DHT22;11959;49.418;8.728;2023-08-21T01:56:10;21.70;99.90
23562;DHT22;11959;49.418;8.728;2023-08-21T01:58:35;21.70;99.90
23562;DHT22;11959;49.418;8.728;2023-08-21T02:01:01;21.70;99.90
23562;DHT22;11959;49.418;8.728;2023-08-21T02:03:26;21.60;99.90
23562;DHT22;11959;49.418;8.728;2023-08-21T02:05:55;21.60;99.90
23562;DHT22;11959;49.418;8.728;2023-08-21T02:08:30;21.60;99.90
23562;DHT22;11959;49.418;8.728;2023-08-21T02:10:55;21.60;99.90
23562;DHT22;11959;49.418;8.728;2023-08-21T02:13:21;21.60;99.90
23562;DHT22;11959;49.418;8.728;2023-08-21T02:15:47;21.50;99.90
23562;DHT22;11959;49.418;8.728;2023-08-21T02:18:12;21.60;99.90
23562;DHT22;11959;49.418;8.728;2023-08-21T02:20:38;21.60;99.90
23562;DHT22;11959;49.418;8.728;2023-08-21T02:23:04;21.60;99.90
23562;DHT22;11959;49.418;8.728;2023-08-21T02:25:30;21.60;99.90
23562;DHT22;11959;49.418;8.728;2023-08-21T02:27:56;21.50;99.90
23562;DHT22;11959;49.418;8.728;2023-08-21T02:30:22;21.50;99.90
23562;DHT22;11959;49.418;8.728;2023-08-21T02:32:51;21.50;99.90
23562;DHT22;11959;49.418;8.728;2023-08-21T02:35:17;21.40;99.90
23562;DHT22;11959;49.418;8.728;2023-08-21T02:37:43;21.50;99.90
23562;DHT22;11959;49.418;8.728;2023-08-21T02:40:08;21.40;99.90
23562;DHT22;11959;49.418;8.728;2023-08-21T02:42:34;21.40;99.90
23562;DHT22;11959;49.418;8.728;2023-08-21T02:45:00;21.40;99.90
23562;DHT22;11959;49.418;8.728;2023-08-21T02:47:29;21.40;99.90
23562;DHT22;11959;49.418;8.728;2023-08-21T02:49:55;21.40;99.90
23562;DHT22;11959;49.418;8.728;2023-08-21T02:52:21;21.40;99.90
23562;DHT22;11959;49.418;8.728;2023-08-21T02:54:46;21.30;99.90
23562;DHT22;11959;49.418;8.728;2023-08-21T02:57:12;21.30;99.90
23562;DHT22;11959;49.418;8.728;2023-08-21T02:59:38;21.30;99.90
23562;DHT22;11959;49.418;8.728;2023-08-21T03:02:03;21.30;99.90
23562;DHT22;11959;49.418;8.728;2023-08-21T03:04:29;21.30;99.90
23562;DHT22;11959;49.418;8.728;2023-08-21T03:06:55;21.30;99.90
23562;DHT22;11959;49.418;8.728;2023-08-21T03:09:20;21.20;99.90
23562;DHT22;11959;49.418;8.728;2023-08-21T03:11:46;21.20;99.90
23562;DHT22;11959;49.418;8.728;2023-08-21T03:14:12;21.20;99.90
23562;DHT22;11959;49.418;8.728;2023-08-21T03:16:37;21.30;99.90
23562;DHT22;11959;49.418;8.728;2023-08-21T03:19:03;21.20;99.90
23562;DHT22;11959;49.418;8.728;2023-08-21T03:21:28;21.20;99.90
23562;DHT22;11959;49.418;8.728;2023-08-21T03:23:57;21.20;99.90
23562;DHT22;11959;49.418;8.728;2023-08-21T03:26:23;21.20;99.90
23562;DHT22;11959;49.418;8.728;2023-08-21T03:28:49;21.20;99.90
23562;DHT22;11959;49.418;8.728;2023-08-21T03:31:15;21.20;99.90
23562;DHT22;11959;49.418;8.728;2023-08-21T03:33:41;21.20;99.90
23562;DHT22;11959;49.418;8.728;2023-08-21T03:36:06;21.10;99.90
23562;DHT22;11959;49.418;8.728;2023-08-21T03:38:32;21.10;99.90
23562;DHT22;11959;49.418;8.728;2023-08-21T03:40:59;21.10;99.90
23562;DHT22;11959;49.418;8.728;2023-08-21T03:43:25;21.10;99.90
23562;DHT22;11959;49.418;8.728;2023-08-21T03:45:50;21.10;99.90
23562;DHT22;11959;49.418;8.728;2023-08-21T03:48:16;21.10;99.90
23562;DHT22;11959;49.418;8.728;2023-08-21T03:50:42;21.10;99.90
23562;DHT22;11959;49.418;8.728;2023-08-21T03:53:07;21.10;99.90
23562;DHT22;11959;49.418;8.728;2023-08-21T03:55:33;21.10;99.90
23562;DHT22;11959;49.418;8.728;2023-08-21T03:57:59;21.00;99.90
23562;DHT22;11959;49.418;8.728;2023-08-21T04:00:25;21.10;99.90
23562;DHT22;11959;49.418;8.728;2023-08-21T04:02:50;21.10;99.90
23562;DHT22;11959;49.418;8.728;2023-08-21T04:05:16;21.10;99.90
23562;DHT22;11959;49.418;8.728;2023-08-21T04:07:42;21.00;99.90
23562;DHT22;11959;49.418;8.728;2023-08-21T04:10:07;21.00;99.90
23562;DHT22;11959;49.418;8.728;2023-08-21T04:12:33;21.00;99.90
23562;DHT22;11959;49.418;8.728;2023-08-21T04:14:59;21.00;99.90
23562;DHT22;11959;49.418;8.728;2023-08-21T04:17:25;21.00;99.90
23562;DHT22;11959;49.418;8.728;2023-08-21T04:19:51;20.90;99.90
23562;DHT22;11959;49.418;8.728;2023-08-21T04:22:17;20.90;99.90
23562;DHT22;11959;49.418;8.728;2023-08-21T04:24:44;20.90;99.90
23562;DHT22;11959;49.418;8.728;2023-08-21T04:27:09;20.90;99.90
23562;DHT22;11959;49.418;8.728;2023-08-21T04:29:35;20.90;99.90
23562;DHT22;11959;49.418;8.728;2023-08-21T04:32:01;20.90;99.90
23562;DHT22;11959;49.418;8.728;2023-08-21T04:34:27;20.90;99.90
23562;DHT22;11959;49.418;8.728;2023-08-21T04:36:52;20.90;99.90
23562;DHT22;11959;49.418;8.728;2023-08-21T04:39:18;20.90;99.90
23562;DHT22;11959;49.418;8.728;2023-08-21T04:41:44;20.90;99.90
23562;DHT22;11959;49.418;8.728;2023-08-21T04:44:10;20.90;99.90
23562;DHT22;11959;49.418;8.728;2023-08-21T04:46:35;20.90;99.90
23562;DHT22;11959;49.418;8.728;2023-08-21T04:49:01;20.80;99.90
23562;DHT22;11959;49.418;8.728;2023-08-21T04:51:27;20.80;99.90
23562;DHT22;11959;49.418;8.728;2023-08-21T04:53:52;20.90;99.90
23562;DHT22;11959;49.418;8.728;2023-08-21T04:56:18;20.80;99.90
23562;DHT22;11959;49.418;8.728;2023-08-21T04:58:43;20.80;99.90
23562;DHT22;11959;49.418;8.728;2023-08-21T05:01:09;20.80;99.90
23562;DHT22;11959;49.418;8.728;2023-08-21T05:03:35;20.80;99.90
23562;DHT22;11959;49.418;8.728;2023-08-21T05:06:01;20.80;99.90
23562;DHT22;11959;49.418;8.728;2023-08-21T05:08:27;20.80;99.90
23562;DHT22;11959;49.418;8.728;2023-08-21T05:10:57;20.80;99.90
23562;DHT22;11959;49.418;8.728;2023-08-21T05:13:22;20.80;99.90
23562;DHT22;11959;49.418;8.728;2023-08-21T05:15:56;20.90;99.90
23562;DHT22;11959;49.418;8.728;2023-08-21T05:18:22;20.90;99.90
23562;DHT22;11959;49.418;8.728;2023-08-21T05:20:49;20.90;99.90
23562;DHT22;11959;49.418;8.728;2023-08-21T05:23:15;20.90;99.90
23562;DHT22;11959;49.418;8.728;2023-08-21T05:25:41;20.90;99.90
23562;DHT22;11959;49.418;8.728;2023-08-21T05:28:07;20.90;99.90
23562;DHT22;11959;49.418;8.728;2023-08-21T05:30:32;20.90;99.90
23562;DHT22;11959;49.418;8.728;2023-08-21T05:32:58;20.90;99.90
23562;DHT22;11959;49.418;8.728;2023-08-21T05:35:24;21.00;99.90
23562;DHT22;11959;49.418;8.728;2023-08-21T05:37:49;21.00;99.90
23562;DHT22;11959;49.418;8.728;2023-08-21T05:40:15;21.00;99.90
23562;DHT22;11959;49.418;8.728;2023-08-21T05:42:41;21.00;99.90
23562;DHT22;11959;49.418;8.728;2023-08-21T05:45:07;21.10;99.90
23562;DHT22;11959;49.418;8.728;2023-08-21T05:47:32;21.10;99.90
23562;DHT22;11959;49.418;8.728;2023-08-21T05:49:58;21.10;99.90
23562;DHT22;11959;49.418;8.728;2023-08-21T05:52:24;21.20;99.90
23562;DHT22;11959;49.418;8.728;2023-08-21T05:54:50;21.20;99.90
23562;DHT22;11959;49.418;8.728;2023-08-21T05:57:15;21.20;99.90
23562;DHT22;11959;49.418;8.728;2023-08-21T05:59:46;21.20;99.90
23562;DHT22;11959;49.418;8.728;2023-08-21T06:02:12;21.30;99.90
23562;DHT22;11959;49.418;8.728;2023-08-21T06:04:40;21.30;99.90
23562;DHT22;11959;49.418;8.728;2023-08-21T06:07:06;21.30;99.90
23562;DHT22;11959;49.418;8.728;2023-08-21T06:09:32;21.40;99.90
23562;DHT22;11959;49.418;8.728;2023-08-21T06:12:00;21.40;99.90
23562;DHT22;11959;49.418;8.728;2023-08-21T06:14:29;21.40;99.90
23562;DHT22;11959;49.418;8.728;2023-08-21T06:17:02;21.40;99.90
23562;DHT22;11959;49.418;8.728;2023-08-21T06:19:28;21.50;99.90
23562;DHT22;11959;49.418;8.728;2023-08-21T06:21:57;21.50;99.90
23562;DHT22;11959;49.418;8.728;2023-08-21T06:24:23;21.50;99.90
23562;DHT22;11959;49.418;8.728;2023-08-21T06:26:51;21.60;99.90
23562;DHT22;11959;49.418;8.728;2023-08-21T06:29:17;21.60;99.90
23562;DHT22;11959;49.418;8.728;2023-08-21T06:31:45;21.60;99.90
23562;DHT22;11959;49.418;8.728;2023-08-21T06:34:11;21.70;99.90
23562;DHT22;11959;49.418;8.728;2023-08-21T06:36:37;21.70;99.90
23562;DHT22;11959;49.418;8.728;2023-08-21T06:39:03;21.70;99.90
23562;DHT22;11959;49.418;8.728;2023-08-21T06:41:29;21.80;99.90
23562;DHT22;11959;49.418;8.728;2023-08-21T06:43:56;21.80;99.90
23562;DHT22;11959;49.418;8.728;2023-08-21T06:46:22;21.80;99.90
23562;DHT22;11959;49.418;8.728;2023-08-21T06:48:48;21.90;99.90
23562;DHT22;11959;49.418;8.728;2023-08-21T06:51:15;21.90;99.90
23562;DHT22;11959;49.418;8.728;2023-08-21T06:53:41;21.90;99.90
23562;DHT22;11959;49.418;8.728;2023-08-21T06:56:07;22.00;99.90
23562;DHT22;11959;49.418;8.728;2023-08-21T06:58:33;22.00;99.90
23562;DHT22;11959;49.418;8.728;2023-08-21T07:01:00;22.10;99.90
23562;DHT22;11959;49.418;8.728;2023-08-21T07:03:26;22.10;99.90
23562;DHT22;11959;49.418;8.728;2023-08-21T07:05:59;22.10;99.90
23562;DHT22;11959;49.418;8.728;2023-08-21T07:08:26;22.20;99.90
23562;DHT22;11959;49.418;8.728;2023-08-21T07:10:52;22.30;99.90
23562;DHT22;11959;49.418;8.728;2023-08-21T07:13:18;22.30;99.90
23562;DHT22;11959;49.418;8.728;2023-08-21T07:15:45;22.40;99.90
23562;DHT22;11959;49.418;8.728;2023-08-21T07:18:11;22.40;99.90
23562;DHT22;11959;49.418;8.728;2023-08-21T07:20:36;22.50;99.90
23562;DHT22;11959;49.418;8.728;2023-08-21T07:23:02;22.60;99.90
23562;DHT22;11959;49.418;8.728;2023-08-21T07:25:28;22.60;99.90
23562;DHT22;11959;49.418;8.728;2023-08-21T07:27:54;22.70;99.90
23562;DHT22;11959;49.418;8.728;2023-08-21T07:30:20;22.80;99.90
23562;DHT22;11959;49.418;8.728;2023-08-21T07:32:46;22.90;99.90
23562;DHT22;11959;49.418;8.728;2023-08-21T07:35:12;22.90;99.90
23562;DHT22;11959;49.418;8.728;2023-08-21T07:37:38;23.00;99.90
23562;DHT22;11959;49.418;8.728;2023-08-21T07:40:07;23.00;99.90
23562;DHT22;11959;49.418;8.728;2023-08-21T07:42:32;23.10;99.90
23562;DHT22;11959;49.418;8.728;2023-08-21T07:44:58;23.10;99.90
23562;DHT22;11959;49.418;8.728;2023-08-21T07:47:24;23.20;99.90
23562;DHT22;11959;49.418;8.728;2023-08-21T07:49:51;23.20;99.90
23562;DHT22;11959;49.418;8.728;2023-08-21T07:52:17;23.30;99.90
23562;DHT22;11959;49.418;8.728;2023-08-21T07:54:43;23.30;99.90
23562;DHT22;11959;49.418;8.728;2023-08-21T07:57:08;23.40;99.90
23562;DHT22;11959;49.418;8.728;2023-08-21T07:59:34;23.40;99.90
23562;DHT22;11959;49.418;8.728;2023-08-21T08:01:59;23.50;99.90
23562;DHT22;11959;49.418;8.728;2023-08-21T08:04:26;23.50;99.90
23562;DHT22;11959;49.418;8.728;2023-08-21T08:06:52;23.60;99.90
23562;DHT22;11959;49.418;8.728;2023-08-21T08:09:17;23.60;99.90
23562;DHT22;11959;49.418;8.728;2023-08-21T08:11:43;23.70;99.90
23562;DHT22;11959;49.418;8.728;2023-08-21T08:14:09;23.70;99.90
23562;DHT22;11959;49.418;8.728;2023-08-21T08:16:35;23.80;99.90
23562;DHT22;11959;49.418;8.728;2023-08-21T08:19:00;23.90;99.90
23562;DHT22;11959;49.418;8.728;2023-08-21T08:21:26;23.90;99.90
23562;DHT22;11959;49.418;8.728;2023-08-21T08:23:52;23.90;99.90
23562;DHT22;11959;49.418;8.728;2023-08-21T08:26:17;24.00;99.90
23562;DHT22;11959;49.418;8.728;2023-08-21T08:28:43;24.10;99.90
23562;DHT22;11959;49.418;8.728;2023-08-21T08:31:16;24.10;99.90
23562;DHT22;11959;49.418;8.728;2023-08-21T08:33:41;24.10;99.90
23562;DHT22;11959;49.418;8.728;2023-08-21T08:36:07;24.20;99.90
23562;DHT22;11959;49.418;8.728;2023-08-21T08:38:33;24.30;99.90
23562;DHT22;11959;49.418;8.728;2023-08-21T08:41:01;24.30;99.90
23562;DHT22;11959;49.418;8.728;2023-08-21T08:43:27;24.30;99.90
23562;DHT22;11959;49.418;8.728;2023-08-21T08:45:56;24.30;99.90
23562;DHT22;11959;49.418;8.728;2023-08-21T08:48:23;24.50;99.90
23562;DHT22;11959;49.418;8.728;2023-08-21T08:50:50;24.50;99.90
23562;DHT22;11959;49.418;8.728;2023-08-21T08:53:18;24.50;99.90
23562;DHT22;11959;49.418;8.728;2023-08-21T08:55:44;24.60;99.90
23562;DHT22;11959;49.418;8.728;2023-08-21T08:58:10;24.60;99.90
23562;DHT22;11959;49.418;8.728;2023-08-21T09:00:36;24.70;99.90
23562;DHT22;11959;49.418;8.728;2023-08-21T09:03:02;24.70;99.90
23562;DHT22;11959;49.418;8.728;2023-08-21T09:05:28;24.80;99.90
23562;DHT22;11959;49.418;8.728;2023-08-21T09:08:10;24.90;99.90
23562;DHT22;11959;49.418;8.728;2023-08-21T09:10:37;24.90;99.90
23562;DHT22;11959;49.418;8.728;2023-08-21T09:13:30;25.00;99.90
23562;DHT22;11959;49.418;8.728;2023-08-21T09:15:56;25.10;99.90
23562;DHT22;11959;49.418;8.728;2023-08-21T09:18:22;25.10;99.90
23562;DHT22;11959;49.418;8.728;2023-08-21T09:20:48;25.30;99.90
23562;DHT22;11959;49.418;8.728;2023-08-21T09:23:18;25.40;99.90
23562;DHT22;11959;49.418;8.728;2023-08-21T09:25:45;25.50;99.90
23562;DHT22;11959;49.418;8.728;2023-08-21T09:28:15;25.50;99.90
23562;DHT22;11959;49.418;8.728;2023-08-21T09:30:45;25.60;99.90
23562;DHT22;11959;49.418;8.728;2023-08-21T09:33:12;25.70;99.90
23562;DHT22;11959;49.418;8.728;2023-08-21T09:35:37;25.70;99.90
23562;DHT22;11959;49.418;8.728;2023-08-21T09:38:05;25.80;99.90
23562;DHT22;11959;49.418;8.728;2023-08-21T09:40:32;25.90;99.90
23562;DHT22;11959;49.418;8.728;2023-08-21T09:42:58;26.00;99.90
23562;DHT22;11959;49.418;8.728;2023-08-21T09:45:25;26.10;99.90
23562;DHT22;11959;49.418;8.728;2023-08-21T09:47:54;26.10;99.90
23562;DHT22;11959;49.418;8.728;2023-08-21T09:50:20;26.30;99.90
23562;DHT22;11959;49.418;8.728;2023-08-21T09:52:46;26.40;99.90
23562;DHT22;11959;49.418;8.728;2023-08-21T09:55:13;26.50;99.90
23562;DHT22;11959;49.418;8.728;2023-08-21T09:57:39;26.60;99.90
23562;DHT22;11959;49.418;8.728;2023-08-21T10:00:10;26.80;99.90
23562;DHT22;11959;49.418;8.728;2023-08-21T10:02:49;26.90;99.90
23562;DHT22;11959;49.418;8.728;2023-08-21T10:05:19;27.10;99.90
23562;DHT22;11959;49.418;8.728;2023-08-21T10:07:49;27.20;99.90
23562;DHT22;11959;49.418;8.728;2023-08-21T10:10:15;27.40;99.90
23562;DHT22;11959;49.418;8.728;2023-08-21T10:12:41;27.60;99.90
23562;DHT22;11959;49.418;8.728;2023-08-21T10:15:07;27.70;99.90
23562;DHT22;11959;49.418;8.728;2023-08-21T10:17:37;27.90;99.90
23562;DHT22;11959;49.418;8.728;2023-08-21T10:20:04;28.00;99.90
23562;DHT22;11959;49.418;8.728;2023-08-21T10:25:03;28.30;99.90
23562;DHT22;11959;49.418;8.728;2023-08-21T10:27:33;28.50;99.90
23562;DHT22;11959;49.418;8.728;2023-08-21T10:29:59;28.70;99.90
23562;DHT22;11959;49.418;8.728;2023-08-21T10:32:25;28.70;99.90
23562;DHT22;11959;49.418;8.728;2023-08-21T10:34:53;28.90;99.90
23562;DHT22;11959;49.418;8.728;2023-08-21T10:37:19;29.00;99.90
23562;DHT22;11959;49.418;8.728;2023-08-21T10:39:57;29.20;99.90
23562;DHT22;11959;49.418;8.728;2023-08-21T10:42:40;29.30;99.90
23562;DHT22;11959;49.418;8.728;2023-08-21T10:45:13;29.30;99.90
23562;DHT22;11959;49.418;8.728;2023-08-21T10:47:38;29.40;99.90
23562;DHT22;11959;49.418;8.728;2023-08-21T10:50:06;29.50;99.90
23562;DHT22;11959;49.418;8.728;2023-08-21T10:52:52;29.60;99.90
23562;DHT22;11959;49.418;8.728;2023-08-21T10:55:17;29.80;99.90
23562;DHT22;11959;49.418;8.728;2023-08-21T10:57:48;29.80;99.90
23562;DHT22;11959;49.418;8.728;2023-08-21T11:00:16;29.90;99.90
23562;DHT22;11959;49.418;8.728;2023-08-21T11:02:47;30.00;99.90
23562;DHT22;11959;49.418;8.728;2023-08-21T11:05:14;30.20;99.90
23562;DHT22;11959;49.418;8.728;2023-08-21T11:07:44;30.20;99.90
23562;DHT22;11959;49.418;8.728;2023-08-21T11:10:12;30.30;99.90
23562;DHT22;11959;49.418;8.728;2023-08-21T11:12:49;30.40;99.90
23562;DHT22;11959;49.418;8.728;2023-08-21T11:15:16;30.40;99.90
23562;DHT22;11959;49.418;8.728;2023-08-21T11:17:42;30.40;99.90
23562;DHT22;11959;49.418;8.728;2023-08-21T11:20:08;30.50;99.90
23562;DHT22;11959;49.418;8.728;2023-08-21T11:22:33;30.50;99.90
23562;DHT22;11959;49.418;8.728;2023-08-21T11:24:59;30.70;99.90
23562;DHT22;11959;49.418;8.728;2023-08-21T11:27:25;30.80;99.90
23562;DHT22;11959;49.418;8.728;2023-08-21T11:29:52;30.80;99.90
23562;DHT22;11959;49.418;8.728;2023-08-21T11:32:23;30.80;99.90
23562;DHT22;11959;49.418;8.728;2023-08-21T11:34:53;30.80;99.90
23562;DHT22;11959;49.418;8.728;2023-08-21T11:37:21;30.90;99.90
23562;DHT22;11959;49.418;8.728;2023-08-21T11:39:49;30.90;99.90
23562;DHT22;11959;49.418;8.728;2023-08-21T11:42:15;30.90;99.90
23562;DHT22;11959;49.418;8.728;2023-08-21T11:44:43;31.00;99.90
23562;DHT22;11959;49.418;8.728;2023-08-21T11:47:09;31.00;99.90
23562;DHT22;11959;49.418;8.728;2023-08-21T11:49:40;31.00;99.90
23562;DHT22;11959;49.418;8.728;2023-08-21T11:52:07;31.10;99.90
23562;DHT22;11959;49.418;8.728;2023-08-21T11:54:37;31.10;99.90
23562;DHT22;11959;49.418;8.728;2023-08-21T11:57:13;31.00;99.90
23562;DHT22;11959;49.418;8.728;2023-08-21T11:59:39;31.00;99.90
23562;DHT22;11959;49.418;8.728;2023-08-21T12:02:21;31.00;99.90
23562;DHT22;11959;49.418;8.728;2023-08-21T12:05:00;31.00;99.90
23562;DHT22;11959;49.418;8.728;2023-08-21T12:07:26;31.10;99.90
23562;DHT22;11959;49.418;8.728;2023-08-21T12:09:52;31.20;99.90
23562;DHT22;11959;49.418;8.728;2023-08-21T12:12:17;31.20;99.90
23562;DHT22;11959;49.418;8.728;2023-08-21T12:14:43;31.30;99.90
23562;DHT22;11959;49.418;8.728;2023-08-21T12:17:09;31.30;99.90
23562;DHT22;11959;49.418;8.728;2023-08-21T12:19:34;31.30;99.90
23562;DHT22;11959;49.418;8.728;2023-08-21T12:22:00;31.40;99.90
23562;DHT22;11959;49.418;8.728;2023-08-21T12:24:26;31.30;99.90
23562;DHT22;11959;49.418;8.728;2023-08-21T12:26:52;31.40;99.90
23562;DHT22;11959;49.418;8.728;2023-08-21T12:29:17;31.40;99.90
23562;DHT22;11959;49.418;8.728;2023-08-21T12:31:43;31.30;99.90
23562;DHT22;11959;49.418;8.728;2023-08-21T12:34:09;31.20;99.90
23562;DHT22;11959;49.418;8.728;2023-08-21T12:36:36;31.20;99.90
23562;DHT22;11959;49.418;8.728;2023-08-21T12:39:05;31.20;99.90
23562;DHT22;11959;49.418;8.728;2023-08-21T12:41:32;31.20;99.90
23562;DHT22;11959;49.418;8.728;2023-08-21T12:44:01;31.20;99.90
23562;DHT22;11959;49.418;8.728;2023-08-21T12:46:28;31.20;99.90
23562;DHT22;11959;49.418;8.728;2023-08-21T12:48:55;31.10;99.90
23562;DHT22;11959;49.418;8.728;2023-08-21T12:51:21;31.20;99.90
23562;DHT22;11959;49.418;8.728;2023-08-21T12:53:46;31.20;99.90
23562;DHT22;11959;49.418;8.728;2023-08-21T12:56:14;31.20;99.90
23562;DHT22;11959;49.418;8.728;2023-08-21T12:58:40;31.20;99.90
23562;DHT22;11959;49.418;8.728;2023-08-21T13:01:05;31.10;99.90
23562;DHT22;11959;49.418;8.728;2023-08-21T13:03:33;31.10;99.90
23562;DHT22;11959;49.418;8.728;2023-08-21T13:05:59;31.00;99.90
23562;DHT22;11959;49.418;8.728;2023-08-21T13:08:25;30.90;99.90
23562;DHT22;11959;49.418;8.728;2023-08-21T13:10:52;30.80;99.90
23562;DHT22;11959;49.418;8.728;2023-08-21T13:13:18;30.80;99.90
23562;DHT22;11959;49.418;8.728;2023-08-21T13:15:43;30.90;99.90
23562;DHT22;11959;49.418;8.728;2023-08-21T13:18:10;30.90;99.90
23562;DHT22;11959;49.418;8.728;2023-08-21T13:20:37;31.00;99.90
23562;DHT22;11959;49.418;8.728;2023-08-21T13:23:03;31.10;99.90
23562;DHT22;11959;49.418;8.728;2023-08-21T13:25:28;31.20;99.90
23562;DHT22;11959;49.418;8.728;2023-08-21T13:27:55;31.20;99.90
23562;DHT22;11959;49.418;8.728;2023-08-21T13:30:21;31.20;99.90
23562;DHT22;11959;49.418;8.728;2023-08-21T13:32:48;31.20;99.90
23562;DHT22;11959;49.418;8.728;2023-08-21T13:35:13;31.10;99.90
23562;DHT22;11959;49.418;8.728;2023-08-21T13:37:39;31.10;99.90
23562;DHT22;11959;49.418;8.728;2023-08-21T13:40:06;31.20;99.90
23562;DHT22;11959;49.418;8.728;2023-08-21T13:42:37;31.20;99.90
23562;DHT22;11959;49.418;8.728;2023-08-21T13:45:13;31.20;99.90
23562;DHT22;11959;49.418;8.728;2023-08-21T13:47:44;31.10;99.90
23562;DHT22;11959;49.418;8.728;2023-08-21T13:50:12;31.00;99.90
23562;DHT22;11959;49.418;8.728;2023-08-21T13:52:38;31.00;99.90
23562;DHT22;11959;49.418;8.728;2023-08-21T13:55:05;31.10;99.90
23562;DHT22;11959;49.418;8.728;2023-08-21T13:57:31;31.20;99.90
23562;DHT22;11959;49.418;8.728;2023-08-21T13:59:59;31.30;99.90
23562;DHT22;11959;49.418;8.728;2023-08-21T14:02:24;31.40;99.90
23562;DHT22;11959;49.418;8.728;2023-08-21T14:04:50;31.50;99.90
23562;DHT22;11959;49.418;8.728;2023-08-21T14:07:16;31.50;99.90
23562;DHT22;11959;49.418;8.728;2023-08-21T14:09:42;31.40;99.90
23562;DHT22;11959;49.418;8.728;2023-08-21T14:12:08;31.50;99.90
23562;DHT22;11959;49.418;8.728;2023-08-21T14:14:35;31.50;99.90
23562;DHT22;11959;49.418;8.728;2023-08-21T14:17:01;31.40;99.90
23562;DHT22;11959;49.418;8.728;2023-08-21T14:19:27;31.40;99.90
23562;DHT22;11959;49.418;8.728;2023-08-21T14:21:54;31.40;99.90
23562;DHT22;11959;49.418;8.728;2023-08-21T14:24:20;31.30;99.90
23562;DHT22;11959;49.418;8.728;2023-08-21T14:26:45;31.20;99.90
23562;DHT22;11959;49.418;8.728;2023-08-21T14:29:11;31.20;99.90
23562;DHT22;11959;49.418;8.728;2023-08-21T14:31:37;31.30;99.90
23562;DHT22;11959;49.418;8.728;2023-08-21T14:34:02;31.40;99.90
23562;DHT22;11959;49.418;8.728;2023-08-21T14:36:28;31.50;99.90
23562;DHT22;11959;49.418;8.728;2023-08-21T14:38:55;31.50;99.90
23562;DHT22;11959;49.418;8.728;2023-08-21T14:41:20;31.50;99.90
23562;DHT22;11959;49.418;8.728;2023-08-21T14:43:47;31.50;99.90
23562;DHT22;11959;49.418;8.728;2023-08-21T14:46:13;31.50;99.90
23562;DHT22;11959;49.418;8.728;2023-08-21T14:48:38;31.50;99.90
23562;DHT22;11959;49.418;8.728;2023-08-21T14:51:04;31.40;99.90
23562;DHT22;11959;49.418;8.728;2023-08-21T14:53:30;31.40;99.90
23562;DHT22;11959;49.418;8.728;2023-08-21T14:55:56;31.30;99.90
23562;DHT22;11959;49.418;8.728;2023-08-21T14:58:22;31.30;99.90
23562;DHT22;11959;49.418;8.728;2023-08-21T15:00:48;31.30;99.90
23562;DHT22;11959;49.418;8.728;2023-08-21T15:03:14;31.20;99.90
23562;DHT22;11959;49.418;8.728;2023-08-21T15:05:40;31.30;99.90
23562;DHT22;11959;49.418;8.728;2023-08-21T15:08:05;31.20;99.90
23562;DHT22;11959;49.418;8.728;2023-08-21T15:10:31;31.20;99.90
23562;DHT22;11959;49.418;8.728;2023-08-21T15:12:56;31.30;99.90
23562;DHT22;11959;49.418;8.728;2023-08-21T15:15:22;31.30;99.90
23562;DHT22;11959;49.418;8.728;2023-08-21T15:17:48;31.30;99.90
23562;DHT22;11959;49.418;8.728;2023-08-21T15:20:13;31.30;99.90
23562;DHT22;11959;49.418;8.728;2023-08-21T15:22:41;31.30;99.90
23562;DHT22;11959;49.418;8.728;2023-08-21T15:25:08;31.30;99.90
23562;DHT22;11959;49.418;8.728;2023-08-21T15:27:35;31.20;99.90
23562;DHT22;11959;49.418;8.728;2023-08-21T15:30:01;31.20;99.90
23562;DHT22;11959;49.418;8.728;2023-08-21T15:32:26;31.20;99.90